Time;durP1;ratioP1;P1;durP2;ratioP2;P2;SDS_P1;SDS_P2;PMS_P1;PMS_P2;Temp;Humidity;BMP_temperature;BMP_pressure;BME280_temperature;BME280_humidity;BME280_pressure;Samples;Min_cycle;Max_cycle;Signal;HPM_P1;HPM_P2
2023/01/07 00:01:03;;;;;;;0.70;0.63;;;14.50;56.30;;;;;;4940326;28;20063;-45
2023/01/07 00:03:30;;;;;;;0.50;0.50;;;14.50;56.30;;;;;;4941400;28;20051;-47
2023/01/07 00:06:00;;;;;;;0.77;0.60;;;14.50;56.30;;;;;;4939773;28;20059;-44
2023/01/07 00:08:29;;;;;;;0.50;0.50;;;14.50;56.30;;;;;;4936206;28;20051;-47
2023/01/07 00:10:57;;;;;;;0.88;0.47;;;14.50;56.30;;;;;;4940262;28;20062;-46
2023/01/07 00:13:25;;;;;;;1.77;0.60;;;14.50;56.30;;;;;;4942193;28;20062;-46
2023/01/07 00:15:57;;;;;;;0.98;0.75;;;14.50;56.40;;;;;;4943747;28;20047;-46
2023/01/07 00:18:25;;;;;;;2.08;0.50;;;14.50;56.40;;;;;;4944599;28;20055;-45
2023/01/07 00:20:52;;;;;;;2.38;1.02;;;14.50;56.40;;;;;;4945242;28;20047;-44
2023/01/07 00:23:20;;;;;;;0.77;0.70;;;14.40;56.40;;;;;;4942717;28;20097;-47
2023/01/07 00:25:47;;;;;;;0.50;0.50;;;14.40;56.40;;;;;;4942966;29;20047;-47
2023/01/07 00:28:14;;;;;;;1.80;0.75;;;14.40;56.40;;;;;;4944067;28;20062;-47
2023/01/07 00:30:43;;;;;;;1.45;0.63;;;14.40;56.40;;;;;;4943569;28;20059;-47
2023/01/07 00:33:13;;;;;;;3.20;1.15;;;14.30;56.40;;;;;;4943781;28;20066;-43
2023/01/07 00:35:40;;;;;;;1.20;0.80;;;14.30;56.40;;;;;;4943107;28;20050;-44
2023/01/07 00:38:07;;;;;;;0.93;0.80;;;14.30;56.40;;;;;;4943939;28;20055;-46
2023/01/07 00:40:35;;;;;;;3.00;0.93;;;14.30;56.50;;;;;;4943719;28;20063;-46
2023/01/07 00:43:03;;;;;;;0.93;0.75;;;14.20;56.40;;;;;;4943787;28;20051;-48
2023/01/07 00:45:32;;;;;;;4.03;0.63;;;14.20;56.50;;;;;;4938985;28;20082;-45
2023/01/07 00:48:02;;;;;;;1.85;0.80;;;14.20;56.50;;;;;;4943154;28;20067;-44
2023/01/07 00:50:32;;;;;;;0.70;0.70;;;14.20;56.50;;;;;;4942204;28;20059;-49
2023/01/07 00:52:59;;;;;;;1.15;0.77;;;14.20;56.60;;;;;;4943553;28;20051;-48
2023/01/07 00:55:27;;;;;;;1.95;0.73;;;14.10;56.60;;;;;;4942062;28;20051;-44
2023/01/07 00:57:55;;;;;;;1.10;0.80;;;14.20;56.70;;;;;;4942826;28;20070;-45
2023/01/07 01:00:23;;;;;;;2.90;0.80;;;14.10;56.60;;;;;;4943279;28;20059;-45
2023/01/07 01:02:51;;;;;;;1.50;0.90;;;14.10;56.60;;;;;;4942378;28;20051;-47
2023/01/07 01:05:20;;;;;;;1.17;1.08;;;14.10;56.60;;;;;;4943014;28;21398;-47
2023/01/07 01:07:48;;;;;;;2.90;1.33;;;14.00;56.70;;;;;;4944432;28;20074;-45
2023/01/07 01:10:17;;;;;;;1.45;1.02;;;14.00;56.80;;;;;;4942110;28;20439;-47
2023/01/07 01:12:46;;;;;;;1.23;1.13;;;14.00;56.90;;;;;;4942318;28;20563;-45
2023/01/07 01:15:15;;;;;;;2.13;1.10;;;14.00;57.00;;;;;;4943396;28;20051;-44
2023/01/07 01:17:42;;;;;;;1.67;1.40;;;14.00;57.00;;;;;;4942937;28;20051;-49
2023/01/07 01:20:14;;;;;;;1.67;1.27;;;14.00;57.10;;;;;;4941537;28;20059;-46
2023/01/07 01:22:42;;;;;;;1.92;1.30;;;14.00;57.10;;;;;;4943522;28;20059;-47
2023/01/07 01:25:10;;;;;;;1.98;1.40;;;14.00;57.20;;;;;;4940375;28;20055;-48
2023/01/07 01:27:38;;;;;;;2.28;1.60;;;13.90;57.10;;;;;;4942775;28;20388;-50
2023/01/07 01:30:06;;;;;;;2.03;1.40;;;13.90;57.20;;;;;;4942732;28;20059;-48
2023/01/07 01:32:34;;;;;;;4.82;1.63;;;13.90;57.30;;;;;;4942095;28;20062;-47
2023/01/07 01:35:01;;;;;;;2.47;1.40;;;13.80;57.30;;;;;;4942739;28;20051;-46
2023/01/07 01:37:28;;;;;;;2.95;1.52;;;13.80;57.40;;;;;;4941401;28;20051;-43
2023/01/07 01:39:57;;;;;;;1.95;1.50;;;13.80;57.50;;;;;;4942074;28;20369;-49
2023/01/07 01:42:25;;;;;;;3.10;1.63;;;13.70;57.50;;;;;;4943484;28;20047;-46
2023/01/07 01:44:54;;;;;;;2.38;1.58;;;13.70;57.50;;;;;;4942847;28;20272;-47
2023/01/07 01:47:29;;;;;;;1.98;1.55;;;13.70;57.50;;;;;;4941159;28;20059;-49
2023/01/07 01:50:01;;;;;;;4.20;1.60;;;13.70;57.60;;;;;;4942267;28;20070;-47
2023/01/07 01:52:34;;;;;;;1.67;1.17;;;13.70;57.60;;;;;;4942639;28;20051;-46
2023/01/07 01:55:06;;;;;;;1.90;1.30;;;13.70;57.70;;;;;;4940571;28;20426;-51
2023/01/07 01:57:36;;;;;;;1.58;1.40;;;13.60;57.70;;;;;;4942267;28;20058;-47
2023/01/07 02:00:06;;;;;;;1.60;1.40;;;13.60;57.70;;;;;;4940843;28;20060;-48
2023/01/07 02:02:37;;;;;;;1.65;1.30;;;13.60;57.80;;;;;;4938622;28;20055;-46
2023/01/07 02:05:06;;;;;;;2.33;1.40;;;13.60;57.80;;;;;;4934356;28;20051;-48
2023/01/07 02:07:33;;;;;;;3.10;1.55;;;13.60;57.90;;;;;;4940067;28;20054;-48
2023/01/07 02:10:11;;;;;;;1.83;1.42;;;13.60;57.90;;;;;;4941692;28;20062;-47
2023/01/07 02:12:57;;;;;;;1.52;1.33;;;13.60;58.00;;;;;;4942250;28;20443;-47
2023/01/07 02:15:32;;;;;;;2.47;1.92;;;13.60;58.10;;;;;;4941555;28;20054;-48
2023/01/07 02:18:16;;;;;;;2.95;1.58;;;13.60;58.10;;;;;;4942926;28;20066;-47
2023/01/07 02:21:03;;;;;;;1.90;1.30;;;13.50;58.10;;;;;;4942578;28;20047;-49
2023/01/07 02:24:16;;;;;;;2.33;1.30;;;13.50;58.20;;;;;;4939955;28;20059;-48
2023/01/07 02:27:07;;;;;;;2.75;1.52;;;13.60;58.20;;;;;;4941121;28;20062;-47
2023/01/07 02:30:10;;;;;;;1.83;1.30;;;13.60;58.10;;;;;;4941479;28;20059;-48
2023/01/07 02:33:00;;;;;;;1.90;1.10;;;13.60;58.10;;;;;;4939287;28;20059;-49
2023/01/07 02:35:39;;;;;;;1.35;1.25;;;13.60;58.10;;;;;;4940775;28;20419;-50
2023/01/07 02:38:18;;;;;;;1.83;1.33;;;13.50;58.00;;;;;;4939586;28;20051;-50
2023/01/07 02:40:55;;;;;;;2.40;1.27;;;13.50;58.00;;;;;;4940930;29;20055;-51
2023/01/07 02:43:32;;;;;;;2.10;1.38;;;13.50;58.10;;;;;;4941211;28;20059;-48
2023/01/07 02:46:06;;;;;;;1.63;1.10;;;13.50;58.10;;;;;;4942547;28;20396;-46
2023/01/07 02:48:36;;;;;;;3.30;1.17;;;13.50;58.10;;;;;;4938443;28;20059;-48
2023/01/07 02:51:03;;;;;;;4.20;1.38;;;13.50;58.10;;;;;;4941296;28;20059;-45
2023/01/07 02:53:31;;;;;;;1.80;1.27;;;13.50;58.20;;;;;;4940022;28;20055;-45
2023/01/07 02:56:14;;;;;;;3.47;1.42;;;13.50;58.20;;;;;;4933916;28;20066;-47
2023/01/07 02:58:56;;;;;;;1.88;1.35;;;13.40;58.30;;;;;;4941448;28;20488;-46
2023/01/07 03:01:50;;;;;;;2.03;1.50;;;13.40;58.30;;;;;;4942018;28;20514;-49
2023/01/07 03:04:32;;;;;;;1.38;1.10;;;13.40;58.40;;;;;;4942274;28;20063;-49
2023/01/07 03:07:14;;;;;;;3.30;1.60;;;13.40;58.30;;;;;;4941673;28;20067;-48
2023/01/07 03:09:49;;;;;;;1.40;1.17;;;13.40;58.40;;;;;;4940110;28;20073;-46
2023/01/07 03:12:29;;;;;;;3.42;1.40;;;13.40;58.40;;;;;;4941023;28;20527;-50
2023/01/07 03:15:02;;;;;;;1.70;1.35;;;13.30;58.50;;;;;;4940306;28;20138;-45
2023/01/07 03:17:35;;;;;;;1.47;1.20;;;13.30;58.50;;;;;;4941807;28;20056;-51
2023/01/07 03:20:05;;;;;;;2.08;1.25;;;13.30;58.50;;;;;;4940920;28;20495;-45
2023/01/07 03:22:34;;;;;;;2.00;1.27;;;13.30;58.50;;;;;;4941388;28;20526;-46
2023/01/07 03:25:03;;;;;;;1.58;1.48;;;13.30;58.60;;;;;;4969514;28;20051;-47
2023/01/07 03:27:34;;;;;;;2.13;1.45;;;13.30;58.60;;;;;;4941525;28;20256;-48
2023/01/07 03:30:04;;;;;;;2.92;1.10;;;13.30;58.60;;;;;;4970527;28;20400;-50
2023/01/07 03:32:38;;;;;;;3.42;1.30;;;13.30;58.70;;;;;;4938835;28;20055;-46
2023/01/07 03:35:08;;;;;;;2.85;1.50;;;13.20;58.60;;;;;;4940186;28;20066;-48
2023/01/07 03:37:36;;;;;;;3.15;1.30;;;13.20;58.70;;;;;;4941105;28;20051;-48
2023/01/07 03:40:08;;;;;;;1.33;1.10;;;13.20;58.70;;;;;;4938288;28;20070;-47
2023/01/07 03:42:40;;;;;;;3.28;1.42;;;13.20;58.70;;;;;;4940172;28;20043;-49
2023/01/07 03:45:11;;;;;;;2.30;1.30;;;13.20;58.70;;;;;;4939680;28;20062;-48
2023/01/07 03:47:40;;;;;;;2.38;1.38;;;13.20;58.70;;;;;;4939287;28;20086;-50
2023/01/07 03:50:10;;;;;;;1.35;0.90;;;13.20;58.80;;;;;;4939150;28;20503;-46
2023/01/07 03:52:37;;;;;;;2.22;1.10;;;13.20;58.80;;;;;;4974672;28;20063;-49
2023/01/07 03:55:05;;;;;;;2.53;1.23;;;13.20;58.70;;;;;;4939361;28;20066;-47
2023/01/07 03:57:33;;;;;;;2.00;1.20;;;13.20;58.70;;;;;;4941228;28;20054;-49
2023/01/07 04:00:00;;;;;;;3.78;1.20;;;13.20;58.70;;;;;;4954537;28;20058;-49
2023/01/07 04:02:27;;;;;;;2.65;1.40;;;13.20;58.70;;;;;;4956643;28;20055;-44
2023/01/07 04:04:55;;;;;;;2.83;1.50;;;13.20;58.80;;;;;;4939304;28;20063;-48
2023/01/07 04:07:23;;;;;;;2.80;1.20;;;13.20;58.80;;;;;;4939996;28;20047;-46
2023/01/07 04:09:50;;;;;;;2.72;1.30;;;13.10;58.70;;;;;;4939204;28;20059;-49
2023/01/07 04:12:18;;;;;;;1.67;1.30;;;13.20;58.80;;;;;;4940743;28;20059;-46
2023/01/07 04:14:45;;;;;;;2.83;1.30;;;13.10;58.80;;;;;;4943012;28;20054;-49
2023/01/07 04:17:12;;;;;;;1.70;1.60;;;13.10;58.80;;;;;;4941271;28;20059;-48
2023/01/07 04:19:40;;;;;;;2.25;1.27;;;13.10;58.90;;;;;;4940599;28;20055;-50
2023/01/07 04:22:09;;;;;;;4.53;1.50;;;13.10;58.90;;;;;;4939555;28;20058;-47
2023/01/07 04:24:38;;;;;;;3.38;1.65;;;13.00;58.90;;;;;;4939562;28;20526;-46
2023/01/07 04:27:05;;;;;;;2.00;1.35;;;13.10;59.00;;;;;;4940152;28;20051;-50
2023/01/07 04:29:32;;;;;;;1.77;1.30;;;13.00;58.90;;;;;;4938292;28;20052;-46
2023/01/07 04:31:59;;;;;;;2.22;1.27;;;13.00;58.90;;;;;;4939958;28;20395;-47
2023/01/07 04:34:27;;;;;;;3.55;1.20;;;13.00;58.90;;;;;;4940292;28;20055;-47
2023/01/07 04:36:54;;;;;;;2.97;1.23;;;13.00;58.90;;;;;;4941771;28;20066;-50
2023/01/07 04:39:21;;;;;;;1.67;1.27;;;13.00;59.00;;;;;;4939223;28;20059;-49
2023/01/07 04:41:50;;;;;;;2.20;1.08;;;13.00;59.00;;;;;;4940769;28;20060;-47
2023/01/07 04:44:17;;;;;;;1.73;1.30;;;13.00;59.10;;;;;;4939657;28;20411;-46
2023/01/07 04:46:44;;;;;;;2.30;1.13;;;13.00;59.20;;;;;;4940456;28;20055;-47
2023/01/07 04:49:12;;;;;;;4.10;1.33;;;13.00;59.20;;;;;;4939203;28;20059;-48
2023/01/07 04:51:39;;;;;;;1.52;1.20;;;13.00;59.50;;;;;;4939329;28;20074;-46
2023/01/07 04:54:06;;;;;;;2.33;1.23;;;13.00;59.40;;;;;;4939038;28;20055;-44
2023/01/07 04:56:33;;;;;;;2.22;1.15;;;13.00;59.50;;;;;;4939938;28;20055;-51
2023/01/07 04:59:02;;;;;;;3.08;1.08;;;13.00;59.60;;;;;;4940260;28;20059;-50
2023/01/07 05:01:31;;;;;;;3.05;1.08;;;13.00;59.60;;;;;;4944034;28;20711;-49
2023/01/07 05:03:58;;;;;;;1.75;0.93;;;13.00;59.60;;;;;;4943523;28;20055;-45
2023/01/07 05:06:26;;;;;;;2.38;1.20;;;13.00;59.60;;;;;;4943842;28;20050;-49
2023/01/07 05:08:53;;;;;;;1.20;0.80;;;13.00;59.60;;;;;;4942623;28;20531;-47
2023/01/07 05:11:21;;;;;;;4.40;1.05;;;13.00;59.60;;;;;;4944943;28;20055;-46
2023/01/07 05:13:49;;;;;;;1.85;0.90;;;13.00;59.60;;;;;;4940697;28;20051;-47
2023/01/07 05:16:18;;;;;;;5.15;2.63;;;13.10;59.60;;;;;;4940765;28;20058;-49
2023/01/07 05:18:45;;;;;;;12.55;6.53;;;13.10;59.60;;;;;;4941476;28;20419;-48
2023/01/07 05:21:12;;;;;;;2.97;1.95;;;13.10;59.50;;;;;;4942546;28;20070;-49
2023/01/07 05:23:39;;;;;;;2.25;1.35;;;13.10;59.50;;;;;;4943075;28;20077;-50
2023/01/07 05:26:07;;;;;;;1.42;0.90;;;13.10;59.40;;;;;;4942776;28;20059;-45
2023/01/07 05:28:34;;;;;;;2.10;0.90;;;13.20;59.50;;;;;;4943346;28;20400;-48
2023/01/07 05:31:02;;;;;;;2.25;0.93;;;13.20;59.90;;;;;;4943244;28;20628;-45
2023/01/07 05:33:30;;;;;;;30.58;13.73;;;13.20;59.40;;;;;;4942503;28;20058;-44
2023/01/07 05:35:57;;;;;;;75.63;33.40;;;13.20;59.40;;;;;;4943120;28;20070;-49
2023/01/07 05:38:24;;;;;;;18.58;9.20;;;13.20;59.30;;;;;;4942592;28;20055;-48
2023/01/07 05:40:52;;;;;;;6.15;3.10;;;13.20;59.30;;;;;;4942615;28;20063;-47
2023/01/07 05:43:20;;;;;;;3.15;1.27;;;13.30;59.30;;;;;;4940563;28;20062;-48
2023/01/07 05:45:47;;;;;;;1.13;0.85;;;13.30;59.20;;;;;;4942723;28;20062;-45
2023/01/07 05:48:15;;;;;;;1.50;0.90;;;13.30;59.20;;;;;;4942509;28;20051;-46
2023/01/07 05:50:44;;;;;;;2.45;0.93;;;13.30;59.10;;;;;;4941142;28;20138;-48
2023/01/07 05:53:11;;;;;;;2.17;0.80;;;13.30;59.00;;;;;;4942208;28;20055;-48
2023/01/07 05:55:38;;;;;;;0.95;0.70;;;13.30;59.00;;;;;;4943049;28;20055;-49
2023/01/07 05:58:06;;;;;;;1.13;0.60;;;13.30;59.00;;;;;;4941464;28;20063;-49
2023/01/07 06:00:33;;;;;;;26.58;11.05;;;13.30;59.00;;;;;;4941607;28;20059;-45
2023/01/07 06:03:01;;;;;;;76.03;34.88;;;13.40;59.00;;;;;;4941716;28;20055;-47
2023/01/07 06:05:28;;;;;;;15.73;7.63;;;13.40;59.00;;;;;;4941652;28;20585;-49
2023/01/07 06:07:57;;;;;;;4.10;2.38;;;13.40;58.90;;;;;;4940146;28;20051;-44
2023/01/07 06:10:24;;;;;;;4.18;1.30;;;13.40;58.90;;;;;;4937431;28;20059;-45
2023/01/07 06:12:51;;;;;;;2.78;0.90;;;13.40;58.80;;;;;;4942105;28;20062;-47
2023/01/07 06:15:19;;;;;;;1.20;0.70;;;13.40;58.80;;;;;;4942478;28;20047;-43
2023/01/07 06:17:46;;;;;;;0.73;0.52;;;13.40;58.70;;;;;;4941847;28;20491;-47
2023/01/07 06:20:14;;;;;;;1.25;0.50;;;13.40;58.70;;;;;;4938458;28;20439;-45
2023/01/07 06:22:42;;;;;;;1.95;0.50;;;13.40;58.70;;;;;;4942901;28;20475;-48
2023/01/07 06:25:11;;;;;;;1.10;0.68;;;13.40;58.70;;;;;;4940305;28;20406;-48
2023/01/07 06:27:39;;;;;;;1.30;0.60;;;13.50;58.70;;;;;;4941849;28;20047;-47
2023/01/07 06:30:07;;;;;;;16.23;6.88;;;13.40;58.60;;;;;;4938598;28;20055;-45
2023/01/07 06:32:37;;;;;;;19.35;7.90;;;13.40;58.60;;;;;;4941867;28;20055;-47
2023/01/07 06:35:06;;;;;;;4.75;2.17;;;13.40;58.60;;;;;;4941222;28;20063;-50
2023/01/07 06:37:33;;;;;;;1.83;1.10;;;13.50;58.60;;;;;;4941829;28;20067;-49
2023/01/07 06:40:00;;;;;;;1.30;0.70;;;13.50;58.50;;;;;;4939587;28;20070;-46
2023/01/07 06:42:29;;;;;;;1.13;0.60;;;13.50;58.50;;;;;;4941882;28;20407;-46
2023/01/07 06:44:56;;;;;;;1.55;0.50;;;13.50;58.40;;;;;;4940982;28;20063;-47
2023/01/07 06:47:24;;;;;;;1.08;0.60;;;13.50;58.40;;;;;;4941911;28;20051;-48
2023/01/07 06:49:51;;;;;;;1.70;0.80;;;13.50;58.80;;;;;;4944539;28;20047;-46
2023/01/07 06:52:18;;;;;;;3.63;0.60;;;13.50;58.30;;;;;;4940572;28;20059;-47
2023/01/07 06:54:46;;;;;;;0.95;0.50;;;13.50;58.30;;;;;;4940246;28;20050;-46
2023/01/07 06:57:14;;;;;;;1.65;0.50;;;13.50;58.20;;;;;;4941905;28;20521;-48
2023/01/07 06:59:43;;;;;;;0.68;0.50;;;13.50;58.20;;;;;;4943071;28;20059;-47
2023/01/07 07:02:18;;;;;;;1.25;0.70;;;13.50;58.00;;;;;;4943038;28;20059;-49
2023/01/07 07:04:45;;;;;;;1.75;0.60;;;13.50;58.20;;;;;;4942479;28;20062;-49
2023/01/07 07:07:12;;;;;;;1.20;0.40;;;13.50;58.20;;;;;;4944628;28;20054;-49
2023/01/07 07:09:40;;;;;;;1.10;0.60;;;13.50;58.20;;;;;;4941541;28;20495;-47
2023/01/07 07:12:08;;;;;;;0.57;0.50;;;13.50;58.20;;;;;;4941159;28;20055;-50
2023/01/07 07:14:35;;;;;;;0.52;0.50;;;13.50;58.20;;;;;;4941593;28;20063;-49
2023/01/07 07:17:05;;;;;;;0.90;0.60;;;13.50;58.10;;;;;;4941582;28;20059;-46
2023/01/07 07:19:32;;;;;;;1.50;0.60;;;13.50;58.00;;;;;;4941194;28;20051;-49
2023/01/07 07:21:59;;;;;;;1.95;0.60;;;13.50;58.00;;;;;;4939101;28;20051;-47
2023/01/07 07:24:26;;;;;;;1.00;0.73;;;13.50;58.00;;;;;;4941085;28;21420;-47
2023/01/07 07:26:53;;;;;;;1.15;0.65;;;13.50;58.00;;;;;;4940100;28;20525;-47
2023/01/07 07:29:21;;;;;;;1.15;0.68;;;13.50;58.00;;;;;;4940232;28;20054;-48
2023/01/07 07:31:48;;;;;;;3.83;0.80;;;13.50;58.00;;;;;;4941124;28;20059;-46
2023/01/07 07:34:16;;;;;;;2.35;0.60;;;13.50;57.90;;;;;;4939416;28;20047;-46
2023/01/07 07:36:44;;;;;;;0.95;0.60;;;13.50;57.90;;;;;;4941947;28;20055;-47
2023/01/07 07:39:11;;;;;;;1.17;0.55;;;13.50;58.30;;;;;;4939665;28;20055;-49
2023/01/07 07:41:38;;;;;;;2.03;0.80;;;13.50;57.80;;;;;;4941648;28;20062;-48
2023/01/07 07:44:06;;;;;;;0.77;0.50;;;13.50;57.80;;;;;;4939455;28;20066;-49
2023/01/07 07:46:33;;;;;;;2.80;0.60;;;13.50;57.80;;;;;;4939643;28;20058;-50
2023/01/07 07:49:00;;;;;;;1.65;0.63;;;13.50;57.80;;;;;;4933257;28;20051;-50
2023/01/07 07:51:29;;;;;;;3.17;0.82;;;13.50;57.70;;;;;;4939686;28;20412;-49
2023/01/07 07:53:56;;;;;;;1.10;0.65;;;13.50;57.70;;;;;;4939675;28;20055;-49
2023/01/07 07:56:23;;;;;;;1.42;1.02;;;13.50;57.70;;;;;;4942376;28;20071;-49
2023/01/07 07:58:50;;;;;;;1.35;0.80;;;13.50;57.60;;;;;;4941777;28;20408;-48
2023/01/07 08:01:18;;;;;;;1.42;0.80;;;13.50;57.60;;;;;;4941469;28;20051;-44
2023/01/07 08:03:45;;;;;;;1.02;0.70;;;13.50;57.60;;;;;;4941860;28;20077;-46
2023/01/07 08:06:12;;;;;;;1.70;1.10;;;13.50;57.50;;;;;;4939590;28;20074;-46
2023/01/07 08:08:41;;;;;;;1.75;1.00;;;13.50;57.50;;;;;;4939839;28;20055;-50
2023/01/07 08:11:09;;;;;;;1.02;0.93;;;13.50;57.50;;;;;;4940169;28;20055;-48
2023/01/07 08:13:36;;;;;;;0.93;0.82;;;13.50;57.50;;;;;;4938928;28;20388;-48
2023/01/07 08:16:04;;;;;;;2.15;1.35;;;13.50;57.40;;;;;;4941778;28;20059;-47
2023/01/07 08:18:31;;;;;;;2.72;1.48;;;13.50;57.40;;;;;;5004124;28;20058;-49
2023/01/07 08:20:58;;;;;;;1.73;1.25;;;13.50;57.40;;;;;;5019627;28;20062;-48
2023/01/07 08:23:27;;;;;;;2.20;1.52;;;13.50;57.40;;;;;;5018581;28;20053;-50
2023/01/07 08:25:59;;;;;;;2.30;1.40;;;13.50;57.40;;;;;;5018208;28;20057;-47
2023/01/07 08:28:26;;;;;;;2.05;1.33;;;13.50;57.40;;;;;;5015649;28;20057;-47
2023/01/07 08:30:54;;;;;;;1.73;1.40;;;13.50;57.40;;;;;;5016610;28;20417;-49
2023/01/07 08:33:21;;;;;;;2.10;1.25;;;13.50;57.40;;;;;;5018454;28;20054;-46
2023/01/07 08:35:48;;;;;;;2.42;1.42;;;13.50;57.40;;;;;;5022313;28;20049;-50
2023/01/07 08:38:15;;;;;;;2.67;1.77;;;13.50;57.30;;;;;;5023757;28;20046;-50
2023/01/07 08:40:43;;;;;;;2.17;1.75;;;13.50;57.30;;;;;;5023330;28;20053;-47
2023/01/07 08:43:12;;;;;;;4.13;1.60;;;13.50;57.20;;;;;;5024201;28;20057;-50
2023/01/07 08:45:39;;;;;;;2.80;1.77;;;13.50;57.20;;;;;;5015782;28;20053;-48
2023/01/07 08:48:06;;;;;;;49.22;23.38;;;13.50;57.30;;;;;;5016446;28;20393;-48
2023/01/07 08:50:34;;;;;;;21.77;10.60;;;13.50;57.20;;;;;;5021624;28;20057;-47
2023/01/07 08:53:01;;;;;;;8.65;4.32;;;13.50;57.20;;;;;;5022325;28;20469;-49
2023/01/07 08:55:29;;;;;;;3.92;2.65;;;13.50;57.20;;;;;;5020406;28;20060;-50
2023/01/07 08:57:56;;;;;;;5.13;2.78;;;13.50;57.10;;;;;;5022911;28;20057;-48
2023/01/07 09:00:25;;;;;;;4.65;3.10;;;13.50;57.10;;;;;;5016086;28;20512;-46
2023/01/07 09:02:53;;;;;;;5.75;3.60;;;13.50;57.10;;;;;;5017661;28;20049;-46
2023/01/07 09:05:20;;;;;;;4.40;3.53;;;13.50;57.10;;;;;;5019778;28;20497;-48
2023/01/07 09:07:51;;;;;;;4.60;3.20;;;13.60;57.10;;;;;;5023018;28;20049;-48
2023/01/07 09:10:18;;;;;;;4.20;3.00;;;13.60;57.10;;;;;;5019156;28;20595;-50
2023/01/07 09:12:45;;;;;;;4.07;2.90;;;13.60;57.10;;;;;;5032046;28;20063;-50
2023/01/07 09:15:12;;;;;;;3.53;2.47;;;13.60;57.10;;;;;;5041679;28;20515;-48
2023/01/07 09:17:41;;;;;;;4.20;2.63;;;13.60;57.10;;;;;;5040403;28;20068;-46
2023/01/07 09:20:10;;;;;;;15.05;2.90;;;13.60;57.10;;;;;;5041578;28;20053;-47
2023/01/07 09:22:37;;;;;;;3.35;2.42;;;13.60;57.00;;;;;;5042723;28;20064;-49
2023/01/07 09:25:06;;;;;;;4.05;2.65;;;13.60;57.50;;;;;;5037849;28;20646;-50
2023/01/07 09:27:33;;;;;;;4.50;2.92;;;13.60;56.90;;;;;;5039886;28;20056;-51
2023/01/07 09:30:01;;;;;;;3.33;2.30;;;13.60;56.90;;;;;;5027417;28;20056;-47
2023/01/07 09:32:28;;;;;;;4.32;2.90;;;13.60;56.90;;;;;;5023233;28;20053;-50
2023/01/07 09:34:57;;;;;;;3.90;2.83;;;13.60;56.90;;;;;;5023318;28;20064;-49
2023/01/07 09:37:24;;;;;;;3.05;2.40;;;13.70;57.00;;;;;;5036238;28;20500;-49
2023/01/07 09:39:51;;;;;;;3.75;2.38;;;13.70;56.90;;;;;;5040689;28;20045;-48
2023/01/07 09:42:26;;;;;;;3.38;2.60;;;13.70;56.90;;;;;;5040518;28;20056;-49
2023/01/07 09:45:08;;;;;;;3.50;2.20;;;13.70;56.80;;;;;;5041884;28;20068;-47
2023/01/07 09:47:37;;;;;;;4.40;2.10;;;13.70;56.70;;;;;;5040616;28;20068;-49
2023/01/07 09:50:14;;;;;;;3.42;2.00;;;13.80;56.80;;;;;;5040353;28;20493;-48
2023/01/07 09:52:45;;;;;;;2.47;1.90;;;13.70;56.60;;;;;;5041062;28;20583;-45
2023/01/07 09:55:19;;;;;;;4.47;1.75;;;13.80;56.60;;;;;;5038828;28;20052;-48
2023/01/07 09:57:46;;;;;;;2.70;1.70;;;13.80;56.40;;;;;;5042426;28;20052;-46
2023/01/07 10:00:17;;;;;;;2.50;1.60;;;13.80;56.30;;;;;;5041645;28;20045;-50
2023/01/07 10:03:05;;;;;;;4.00;1.45;;;13.80;55.90;;;;;;5028378;28;20076;-50
2023/01/07 10:05:43;;;;;;;2.15;1.52;;;13.80;55.90;;;;;;5027300;28;20060;-46
2023/01/07 10:08:23;;;;;;;2.47;1.30;;;13.80;55.70;;;;;;5028701;28;20358;-49
2023/01/07 10:10:55;;;;;;;2.75;1.55;;;13.80;55.70;;;;;;5028224;28;20056;-51
2023/01/07 10:13:44;;;;;;;2.83;1.23;;;13.80;55.70;;;;;;5012616;28;20053;-46
2023/01/07 10:16:20;;;;;;;1.42;1.20;;;13.80;55.70;;;;;;5010121;28;20060;-49
2023/01/07 10:18:56;;;;;;;1.70;1.17;;;13.80;55.70;;;;;;5021875;28;20057;-47
2023/01/07 10:21:27;;;;;;;1.05;0.88;;;13.80;55.60;;;;;;5020294;28;20053;-51
2023/01/07 10:24:02;;;;;;;1.35;1.00;;;13.90;55.60;;;;;;5017308;28;20060;-49
2023/01/07 10:26:35;;;;;;;1.83;0.85;;;13.90;55.60;;;;;;5020780;28;21063;-50
2023/01/07 10:29:06;;;;;;;1.58;1.00;;;13.90;55.60;;;;;;5021309;28;20401;-48
2023/01/07 10:31:34;;;;;;;1.77;1.10;;;13.90;55.40;;;;;;5009871;28;20056;-45
2023/01/07 10:34:02;;;;;;;2.08;1.00;;;13.90;55.30;;;;;;5008303;28;20049;-46
2023/01/07 10:36:33;;;;;;;1.30;0.70;;;13.90;55.20;;;;;;5009054;28;20060;-48
2023/01/07 10:39:13;;;;;;;1.55;1.05;;;13.90;55.10;;;;;;5006833;28;20053;-45
2023/01/07 10:41:52;;;;;;;1.52;0.80;;;13.90;55.00;;;;;;5010341;28;20425;-47
2023/01/07 10:44:55;;;;;;;2.70;0.77;;;14.00;54.90;;;;;;5008327;28;20061;-49
2023/01/07 10:47:37;;;;;;;1.70;1.08;;;14.00;54.90;;;;;;4970154;28;20048;-49
2023/01/07 10:50:20;;;;;;;5.47;1.02;;;14.00;54.70;;;;;;5002731;28;20046;-49
2023/01/07 10:52:54;;;;;;;1.10;0.60;;;14.10;54.80;;;;;;5008397;28;20064;-48
2023/01/07 10:55:36;;;;;;;1.63;0.80;;;14.00;54.80;;;;;;5007406;28;20495;-49
2023/01/07 10:58:04;;;;;;;2.05;1.10;;;14.10;54.80;;;;;;5008430;28;20504;-47
2023/01/07 11:00:32;;;;;;;0.77;0.50;;;14.10;54.70;;;;;;5010872;28;20052;-47
2023/01/07 11:02:59;;;;;;;1.15;1.05;;;14.10;54.60;;;;;;5005089;28;20057;-46
2023/01/07 11:05:35;;;;;;;1.10;0.60;;;14.10;54.30;;;;;;5007177;28;20053;-50
2023/01/07 11:08:09;;;;;;;1.77;1.00;;;14.10;54.30;;;;;;5002253;28;20508;-48
2023/01/07 11:10:37;;;;;;;;;;;14.10;54.30;;;;;;5016042;28;20045;-46
2023/01/07 11:13:12;;;;;;;1.30;0.68;;;14.20;54.50;;;;;;5021889;28;19928;-45
2023/01/07 11:15:44;;;;;;;0.82;0.65;;;14.20;54.10;;;;;;5022968;28;20053;-49
2023/01/07 11:18:16;;;;;;;0.40;0.40;;;14.20;53.80;;;;;;5024465;28;20517;-48
2023/01/07 11:20:49;;;;;;;1.70;0.80;;;14.20;53.90;;;;;;5020806;28;20365;-48
2023/01/07 11:23:36;;;;;;;5.82;0.80;;;14.20;54.00;;;;;;5024970;28;20053;-49
2023/01/07 11:26:11;;;;;;;0.80;0.50;;;14.20;53.50;;;;;;5022673;28;20417;-46
2023/01/07 11:28:42;;;;;;;0.98;0.65;;;14.20;53.50;;;;;;5033031;28;20063;-47
2023/01/07 11:31:10;;;;;;;3.83;0.65;;;14.20;53.60;;;;;;5025924;28;20052;-48
2023/01/07 11:33:40;;;;;;;1.23;0.60;;;14.20;53.60;;;;;;5029924;28;20537;-46
2023/01/07 11:36:08;;;;;;;1.65;0.70;;;14.20;53.40;;;;;;5025020;28;20053;-49
2023/01/07 11:38:38;;;;;;;1.98;0.60;;;14.20;53.10;;;;;;5030337;28;20049;-47
2023/01/07 11:41:07;;;;;;;1.25;0.70;;;14.20;53.10;;;;;;5020401;28;20540;-47
2023/01/07 11:43:38;;;;;;;0.47;0.45;;;14.20;53.10;;;;;;5029786;28;20053;-50
2023/01/07 11:46:12;;;;;;;0.93;0.50;;;14.20;53.10;;;;;;5019749;28;20049;-50
2023/01/07 11:48:48;;;;;;;0.98;0.55;;;14.20;53.00;;;;;;5031738;28;20421;-46
2023/01/07 11:51:16;;;;;;;0.40;0.40;;;14.20;53.00;;;;;;5027371;28;20103;-50
2023/01/07 11:53:50;;;;;;;0.93;0.50;;;14.20;53.10;;;;;;5023738;28;20052;-48
2023/01/07 11:56:25;;;;;;;0.50;0.40;;;14.20;53.10;;;;;;5025575;28;20057;-46
2023/01/07 11:59:15;;;;;;;1.02;0.60;;;14.30;53.10;;;;;;5024249;28;20498;-46
2023/01/07 12:01:44;;;;;;;1.08;0.60;;;14.30;52.70;;;;;;5019161;28;20045;-48
2023/01/07 12:04:21;;;;;;;1.88;0.60;;;14.30;52.80;;;;;;5033164;28;20061;-47
2023/01/07 12:06:50;;;;;;;0.50;0.50;;;14.30;52.50;;;;;;5030452;28;20048;-47
2023/01/07 12:09:27;;;;;;;0.80;0.60;;;14.30;52.70;;;;;;5027502;28;20061;-45
2023/01/07 12:11:57;;;;;;;6.15;2.90;;;14.30;52.50;;;;;;5031398;28;20528;-47
2023/01/07 12:14:28;;;;;;;1.67;0.80;;;14.30;52.70;;;;;;5030423;28;20053;-45
2023/01/07 12:17:09;;;;;;;1.60;0.60;;;14.30;52.50;;;;;;5025646;28;20080;-47
2023/01/07 12:19:54;;;;;;;1.58;0.70;;;14.30;52.50;;;;;;5025749;28;20057;-49
2023/01/07 12:22:35;;;;;;;1.33;0.77;;;14.30;52.30;;;;;;5026052;28;20628;-50
2023/01/07 12:25:22;;;;;;;0.50;0.43;;;14.30;52.30;;;;;;5024430;28;20061;-52
2023/01/07 12:28:01;;;;;;;2.25;0.80;;;14.30;52.30;;;;;;5026784;28;20080;-46
2023/01/07 12:31:04;;;;;;;0.98;0.73;;;14.30;52.40;;;;;;5032561;28;20052;-45
2023/01/07 12:33:48;;;;;;;1.58;0.77;;;14.30;52.20;;;;;;5025725;28;20060;-45
2023/01/07 12:36:20;;;;;;;2.67;0.90;;;14.30;52.20;;;;;;5026206;28;20087;-48
2023/01/07 12:38:49;;;;;;;1.98;0.80;;;14.30;52.20;;;;;;5024646;28;20057;-48
2023/01/07 12:41:22;;;;;;;1.50;0.77;;;14.30;52.00;;;;;;5025327;28;20053;-48
2023/01/07 12:43:59;;;;;;;1.52;0.70;;;14.30;52.20;;;;;;5025008;28;20050;-45
2023/01/07 12:46:32;;;;;;;0.98;0.50;;;14.30;52.30;;;;;;5030001;28;20064;-49
2023/01/07 12:49:05;;;;;;;1.58;0.55;;;14.30;52.50;;;;;;5035198;28;20064;-48
2023/01/07 12:51:38;;;;;;;1.02;0.50;;;14.30;52.60;;;;;;5025929;28;20053;-48
2023/01/07 12:54:14;;;;;;;4.07;2.60;;;14.40;52.40;;;;;;5023932;28;20084;-47
2023/01/07 12:56:50;;;;;;;1.27;1.15;;;14.40;52.30;;;;;;5024948;28;20069;-47
2023/01/07 12:59:21;;;;;;;6.57;1.08;;;14.40;52.30;;;;;;5025358;28;20064;-50
2023/01/07 13:01:55;;;;;;;3.17;0.90;;;14.40;52.10;;;;;;5023463;28;20053;-48
2023/01/07 13:04:39;;;;;;;1.38;0.90;;;14.30;51.90;;;;;;5031250;28;20049;-47